Time;durP1;ratioP1;P1;durP2;ratioP2;P2;SDS_P1;SDS_P2;PMS_P1;PMS_P2;Temp;Humidity;BMP_temperature;BMP_pressure;BME280_temperature;BME280_humidity;BME280_pressure;Samples;Min_cycle;Max_cycle;Signal;HPM_P1;HPM_P2
2023/09/06 00:01:12;;;;;;;4.57;3.25;;;;;;;20.36;72.54;101452.91;4975333;28;20046;-70
2023/09/06 00:03:40;;;;;;;5.55;3.28;;;;;;;20.33;72.59;101459.13;4973188;28;20050;-69
2023/09/06 00:06:08;;;;;;;5.07;3.20;;;;;;;20.24;73.13;101459.94;4974471;28;20055;-70
2023/09/06 00:08:36;;;;;;;8.25;3.60;;;;;;;20.16;73.75;101446.03;4974773;28;20055;-69
2023/09/06 00:11:06;;;;;;;3.85;3.20;;;;;;;20.19;73.24;101456.50;4975494;28;20046;-69
2023/09/06 00:13:35;;;;;;;3.90;3.50;;;;;;;20.25;73.86;101438.53;4973738;28;20386;-70
2023/09/06 00:16:04;;;;;;;6.22;3.92;;;;;;;20.34;73.61;101447.66;4973972;28;20047;-69
2023/09/06 00:18:32;;;;;;;5.82;3.50;;;;;;;20.31;73.39;101450.28;4975161;28;20051;-70
2023/09/06 00:21:00;;;;;;;6.20;3.70;;;;;;;20.21;73.80;101452.25;4974877;28;20058;-70
2023/09/06 00:23:29;;;;;;;4.85;3.40;;;;;;;20.11;74.63;101461.72;4974276;28;20058;-69
2023/09/06 00:25:57;;;;;;;5.70;3.25;;;;;;;20.11;74.44;101453.41;4974081;28;20043;-70
2023/09/06 00:28:26;;;;;;;4.50;3.90;;;;;;;20.05;74.90;101449.13;4974419;28;20057;-70
2023/09/06 00:30:57;;;;;;;5.30;3.97;;;;;;;20.00;75.69;101454.84;4975196;28;20394;-70
2023/09/06 00:33:26;;;;;;;6.05;3.85;;;;;;;19.94;76.28;101448.56;4941873;28;20054;-70
2023/09/06 00:35:54;;;;;;;6.15;4.25;;;;;;;20.01;76.69;101448.13;4974782;28;20049;-70
2023/09/06 00:38:24;;;;;;;4.25;3.50;;;;;;;19.95;76.56;101447.41;4956166;28;20409;-69
2023/09/06 00:40:53;;;;;;;4.35;3.80;;;;;;;19.91;77.41;101462.28;4957443;28;20520;-70
2023/09/06 00:43:21;;;;;;;6.32;4.10;;;;;;;19.69;79.08;101450.13;4957459;28;20043;-69
2023/09/06 00:45:50;;;;;;;8.70;3.67;;;;;;;19.67;79.51;101449.63;4973970;28;20047;-69
2023/09/06 00:48:22;;;;;;;4.85;4.07;;;;;;;19.67;77.57;101449.63;4974361;28;20046;-69
2023/09/06 00:50:53;;;;;;;4.90;3.42;;;;;;;19.67;78.67;101444.91;4957097;28;20054;-70
2023/09/06 00:53:22;;;;;;;5.80;4.07;;;;;;;19.65;79.15;101447.16;4956739;28;20055;-70
2023/09/06 00:55:51;;;;;;;6.85;3.75;;;;;;;19.71;78.16;101442.31;4956893;28;20054;-69
2023/09/06 00:58:20;;;;;;;5.07;4.15;;;;;;;19.80;78.38;101442.34;4973890;28;20055;-70
2023/09/06 01:00:49;;;;;;;4.05;3.63;;;;;;;19.85;76.89;101442.19;4974142;28;20509;-70
2023/09/06 01:03:18;;;;;;;6.20;3.90;;;;;;;19.89;76.73;101440.38;4972463;28;20054;-70
2023/09/06 01:06:06;;;;;;;6.55;3.53;;;;;;;19.86;77.51;101439.06;4974045;28;20054;-69
2023/09/06 01:08:39;;;;;;;4.88;3.50;;;;;;;20.07;76.73;101432.13;4974191;28;20043;-69
2023/09/06 01:11:18;;;;;;;5.18;3.53;;;;;;;20.04;76.33;101433.56;4973806;28;20066;-70
2023/09/06 01:13:58;;;;;;;5.45;4.38;;;;;;;19.99;76.95;101439.31;4974372;28;20050;-70
2023/09/06 01:16:37;;;;;;;4.95;4.15;;;;;;;19.90;76.88;101436.50;4956750;28;20054;-69
2023/09/06 01:19:07;;;;;;;5.43;3.60;;;;;;;19.77;78.12;101432.69;4956651;28;20051;-69
2023/09/06 01:21:47;;;;;;;4.00;3.40;;;;;;;19.69;79.00;101433.47;4956637;28;20477;-70
2023/09/06 01:24:17;;;;;;;4.10;3.58;;;;;;;19.77;78.60;101441.00;4956052;28;20046;-70
2023/09/06 01:26:45;;;;;;;4.20;3.35;;;;;;;19.60;79.27;101434.25;4973819;28;20042;-69
2023/09/06 01:29:13;;;;;;;4.38;3.85;;;;;;;19.51;79.90;101433.44;4973341;28;20047;-70
2023/09/06 01:31:41;;;;;;;3.92;3.17;;;;;;;19.48;80.52;101422.94;4973687;28;20055;-69
2023/09/06 01:34:09;;;;;;;4.25;3.80;;;;;;;19.43;80.24;101418.38;4972718;28;20054;-69
2023/09/06 01:36:37;;;;;;;4.40;3.17;;;;;;;19.45;79.85;101420.81;4955416;28;20054;-70
2023/09/06 01:39:08;;;;;;;4.22;3.83;;;;;;;19.50;80.62;101417.09;4972885;28;20046;-70
2023/09/06 01:41:36;;;;;;;4.35;3.92;;;;;;;19.51;80.33;101410.38;4972626;28;20078;-69
2023/09/06 01:44:04;;;;;;;8.40;4.32;;;;;;;19.41;81.21;101411.50;4972846;28;20062;-70
2023/09/06 01:46:32;;;;;;;4.78;3.70;;;;;;;19.38;80.74;101412.13;4972882;28;20050;-69
2023/09/06 01:49:00;;;;;;;5.95;3.70;;;;;;;19.31;80.87;101416.19;4973315;28;20379;-69
2023/09/06 01:51:31;;;;;;;4.85;3.90;;;;;;;19.23;83.10;101411.41;4955241;28;20066;-70
2023/09/06 01:54:01;;;;;;;6.45;3.55;;;;;;;19.23;82.03;101403.09;4940015;28;20054;-69
2023/09/06 01:56:29;;;;;;;6.07;3.67;;;;;;;19.28;81.60;101402.13;4971514;28;20057;-69
2023/09/06 01:58:58;;;;;;;4.40;3.45;;;;;;;19.22;82.71;101403.41;4955358;28;20046;-69
2023/09/06 02:01:26;;;;;;;5.03;3.47;;;;;;;19.16;82.40;101411.06;4956240;28;20046;-69
2023/09/06 02:03:55;;;;;;;4.88;3.92;;;;;;;19.08;83.95;101404.31;4973219;28;20378;-69
2023/09/06 02:06:23;;;;;;;6.05;3.95;;;;;;;19.22;82.84;101400.63;4972863;28;20063;-69
2023/09/06 02:08:51;;;;;;;6.50;4.20;;;;;;;19.15;83.54;101398.31;4955525;28;20050;-69
2023/09/06 02:11:20;;;;;;;5.60;4.18;;;;;;;19.09;83.04;101402.34;4955112;28;20050;-69
2023/09/06 02:13:48;;;;;;;5.03;3.80;;;;;;;18.98;83.52;101405.38;4972721;28;20050;-69
2023/09/06 02:16:17;;;;;;;6.95;4.80;;;;;;;18.98;83.45;101397.06;4955757;28;20050;-69
2023/09/06 02:18:45;;;;;;;4.75;3.70;;;;;;;18.98;83.72;101407.34;4955382;28;20054;-69
2023/09/06 02:21:13;;;;;;;6.68;3.85;;;;;;;18.93;83.38;101399.97;4972213;28;20058;-69
2023/09/06 02:23:41;;;;;;;5.53;3.88;;;;;;;18.97;83.00;101395.41;4972262;28;20057;-69
2023/09/06 02:26:09;;;;;;;5.40;4.20;;;;;;;18.97;83.86;101394.59;4973054;28;20485;-69
2023/09/06 02:28:37;;;;;;;6.45;4.45;;;;;;;18.92;83.41;101395.56;4972645;28;20398;-69
2023/09/06 02:31:05;;;;;;;9.32;4.15;;;;;;;18.85;83.59;101401.53;4954687;28;20079;-69
2023/09/06 02:33:33;;;;;;;5.18;3.83;;;;;;;18.83;84.34;101403.00;4972392;28;20051;-69
2023/09/06 02:36:00;;;;;;;4.32;3.90;;;;;;;18.84;84.27;101404.63;4972409;28;20050;-70
2023/09/06 02:38:28;;;;;;;5.15;3.97;;;;;;;18.79;85.19;101398.09;4972688;28;20059;-69
2023/09/06 02:40:56;;;;;;;4.93;3.88;;;;;;;18.70;84.45;101399.97;4939875;28;20062;-69
2023/09/06 02:43:24;;;;;;;4.28;3.72;;;;;;;18.71;84.55;101398.84;4972428;28;20049;-69
2023/09/06 02:45:54;;;;;;;5.40;3.90;;;;;;;18.76;85.17;101395.13;4972512;28;20051;-70
2023/09/06 02:48:23;;;;;;;5.20;4.13;;;;;;;18.75;84.78;101402.63;4971461;28;20508;-69
2023/09/06 02:50:52;;;;;;;4.22;3.33;;;;;;;18.78;84.14;101392.88;4970847;28;20405;-69
2023/09/06 02:53:20;;;;;;;5.22;3.70;;;;;;;18.72;84.83;101391.34;4972114;28;20054;-69
2023/09/06 02:55:53;;;;;;;4.22;3.78;;;;;;;18.73;84.30;101388.25;4972419;28;20050;-69
2023/09/06 02:58:25;;;;;;;4.75;3.88;;;;;;;18.66;85.46;101387.88;4954899;28;20601;-69
2023/09/06 03:00:57;;;;;;;5.68;3.70;;;;;;;18.74;85.66;101395.44;4936346;29;20058;-70
2023/09/06 03:03:26;;;;;;;4.68;3.60;;;;;;;18.84;84.41;101394.38;4949148;28;20047;-69
2023/09/06 03:05:57;;;;;;;5.18;4.32;;;;;;;18.74;84.75;101394.63;4954527;28;20144;-70
2023/09/06 03:08:27;;;;;;;5.47;3.72;;;;;;;18.67;85.31;101395.88;4973530;28;20054;-69
2023/09/06 03:10:57;;;;;;;5.60;3.65;;;;;;;18.86;84.21;101388.50;4958498;28;20055;-69
2023/09/06 03:13:28;;;;;;;4.68;3.78;;;;;;;18.88;84.50;101383.47;4957553;28;20070;-69
2023/09/06 03:15:59;;;;;;;5.78;3.78;;;;;;;18.84;84.09;101386.06;4958872;28;20066;-69
2023/09/06 03:18:30;;;;;;;4.13;3.13;;;;;;;18.83;83.88;101387.19;4958797;28;20055;-69
2023/09/06 03:21:04;;;;;;;6.22;3.90;;;;;;;18.73;84.09;101388.25;4958231;28;20050;-70
2023/09/06 03:23:35;;;;;;;4.95;3.80;;;;;;;18.68;84.56;101391.16;4958526;28;20050;-69
2023/09/06 03:26:09;;;;;;;4.20;3.78;;;;;;;18.67;85.19;101376.47;4958732;28;20059;-70
2023/09/06 03:28:42;;;;;;;4.03;3.60;;;;;;;18.72;84.27;101381.06;4974686;28;20078;-69
2023/09/06 03:31:15;;;;;;;6.22;4.15;;;;;;;18.70;84.82;101377.81;4958081;28;20588;-69
2023/09/06 03:33:44;;;;;;;4.63;3.33;;;;;;;18.58;85.95;101377.56;4975183;28;20058;-69
2023/09/06 03:36:12;;;;;;;4.03;3.35;;;;;;;18.54;85.60;101380.94;4957374;28;20057;-69
2023/09/06 03:38:40;;;;;;;4.38;3.47;;;;;;;18.48;87.08;101376.66;4958279;28;20379;-70
2023/09/06 03:41:08;;;;;;;3.90;3.50;;;;;;;18.49;86.45;101377.50;4975922;28;20398;-69
2023/09/06 03:43:37;;;;;;;4.80;3.70;;;;;;;18.51;86.07;101376.06;4957713;28;20054;-69
2023/09/06 03:46:07;;;;;;;4.32;3.63;;;;;;;18.56;86.12;101385.38;4974362;28;20051;-69
2023/09/06 03:48:35;;;;;;;5.60;3.97;;;;;;;18.43;86.34;101373.22;4958188;28;20062;-69
2023/09/06 03:51:04;;;;;;;4.47;3.67;;;;;;;18.43;86.56;101379.56;4957860;28;20055;-69
2023/09/06 03:53:37;;;;;;;4.13;3.72;;;;;;;18.49;86.85;101372.78;4974314;28;20497;-69
2023/09/06 03:56:06;;;;;;;6.22;3.47;;;;;;;18.47;86.17;101372.25;4974684;28;20501;-69
2023/09/06 03:58:47;;;;;;;6.88;3.63;;;;;;;18.53;85.99;101373.78;4957517;28;20061;-69
2023/09/06 04:01:15;;;;;;;6.13;3.40;;;;;;;18.49;85.30;101372.78;4957378;28;20393;-69
2023/09/06 04:03:47;;;;;;;4.53;3.90;;;;;;;18.52;86.36;101377.69;4955527;28;20406;-69
2023/09/06 04:06:17;;;;;;;8.68;4.00;;;;;;;18.44;85.68;101367.38;4956579;28;20046;-69
2023/09/06 04:08:46;;;;;;;3.75;3.42;;;;;;;18.42;85.78;101377.94;4975002;28;20081;-69
2023/09/06 04:11:14;;;;;;;4.85;3.72;;;;;;;18.34;87.92;101373.16;4961263;28;20402;-69
2023/09/06 04:13:43;;;;;;;7.32;4.03;;;;;;;18.40;86.56;101369.13;4938152;29;20043;-69
2023/09/06 04:16:14;;;;;;;4.28;3.55;;;;;;;18.53;85.68;101370.19;4937787;29;20048;-69
2023/09/06 04:18:43;;;;;;;5.35;3.90;;;;;;;18.57;84.63;101370.38;4938022;29;20054;-69
2023/09/06 04:21:11;;;;;;;5.65;4.03;;;;;;;18.59;84.15;101371.72;4943146;28;20035;-69
2023/09/06 04:23:43;;;;;;;4.45;3.63;;;;;;;18.57;85.46;101373.16;4973336;28;20058;-69
2023/09/06 04:26:14;;;;;;;6.65;3.67;;;;;;;18.55;85.87;101362.38;4957680;28;20043;-69
2023/09/06 04:28:42;;;;;;;7.95;3.92;;;;;;;18.40;86.78;101369.94;4957077;28;20068;-70
2023/09/06 04:31:17;;;;;;;6.18;3.75;;;;;;;18.44;86.62;101370.13;4957439;28;20051;-69
2023/09/06 04:33:47;;;;;;;7.55;3.65;;;;;;;18.32;87.94;101358.78;4973424;28;20062;-69
2023/09/06 04:36:19;;;;;;;5.93;4.07;;;;;;;18.29;86.74;101362.19;4957879;28;20051;-69
2023/09/06 04:38:51;;;;;;;5.28;3.70;;;;;;;18.23;87.25;101353.97;4957312;28;20062;-70
2023/09/06 04:41:20;;;;;;;6.25;3.70;;;;;;;18.16;88.82;101356.38;4957252;28;20047;-69
2023/09/06 04:43:52;;;;;;;8.40;4.60;;;;;;;18.48;89.59;101357.25;4957521;28;20050;-83
2023/09/06 04:46:20;;;;;;;5.57;3.35;;;;;;;18.95;85.01;101361.63;4925855;28;20046;-83
2023/09/06 04:48:51;;;;;;;5.32;3.88;;;;;;;19.00;82.57;101369.81;4942152;28;20054;-83
2023/09/06 04:51:19;;;;;;;5.97;4.05;;;;;;;19.54;81.21;101360.59;4941033;28;20424;-83
2023/09/06 04:53:49;;;;;;;6.65;3.85;;;;;;;19.94;78.90;101353.31;4938463;28;20040;-83
2023/09/06 04:56:25;;;;;;;5.10;3.70;;;;;;;20.14;78.37;101363.81;4941344;28;20055;-83
2023/09/06 04:58:53;;;;;;;5.75;3.53;;;;;;;20.39;76.49;101364.13;4941633;28;20054;-82
2023/09/06 05:01:22;;;;;;;5.80;3.38;;;;;;;20.50;75.65;101355.47;4941247;28;20502;-84
2023/09/06 05:03:51;;;;;;;4.63;3.33;;;;;;;20.52;74.93;101356.75;4941415;28;20050;-83
2023/09/06 05:06:21;;;;;;;7.20;3.50;;;;;;;20.46;75.90;101360.03;4938270;29;20040;-82
2023/09/06 05:08:49;;;;;;;6.32;3.90;;;;;;;20.60;75.18;101355.13;4940656;28;20061;-83
2023/09/06 05:11:21;;;;;;;7.13;3.55;;;;;;;20.67;74.59;101360.16;4926099;28;20419;-83
2023/09/06 05:13:52;;;;;;;4.88;3.72;;;;;;;20.66;75.29;101359.38;4956769;28;20054;-83
2023/09/06 05:16:22;;;;;;;6.28;4.22;;;;;;;20.67;74.09;101355.44;4941327;28;20494;-83
2023/09/06 05:18:50;;;;;;;6.82;3.90;;;;;;;20.75;73.67;101355.72;4925373;28;20047;-83
2023/09/06 05:21:23;;;;;;;5.88;3.80;;;;;;;20.84;73.99;101359.31;4925686;28;20078;-83
2023/09/06 05:23:51;;;;;;;8.80;3.55;;;;;;;20.67;73.70;101354.59;4941120;28;20055;-83
2023/09/06 05:26:20;;;;;;;5.97;3.70;;;;;;;20.68;74.39;101354.28;4973152;28;20043;-83
2023/09/06 05:28:48;;;;;;;4.07;3.35;;;;;;;20.80;73.96;101355.56;4974309;28;20548;-83
2023/09/06 05:31:20;;;;;;;5.10;3.33;;;;;;;20.78;73.97;101364.22;4956454;28;20047;-83
2023/09/06 05:33:50;;;;;;;7.72;4.20;;;;;;;20.88;74.11;101365.88;4957348;28;20389;-83
2023/09/06 05:36:21;;;;;;;6.38;3.35;;;;;;;20.94;73.17;101350.66;4956897;28;20425;-83
2023/09/06 05:38:49;;;;;;;8.95;3.58;;;;;;;21.09;72.13;101351.25;4974167;28;20043;-83
2023/09/06 05:41:19;;;;;;;7.38;4.05;;;;;;;21.02;72.07;101350.94;4956758;28;20058;-83
2023/09/06 05:43:47;;;;;;;11.35;4.55;;;;;;;21.17;72.53;101355.94;4940078;28;20069;-83
2023/09/06 05:46:16;;;;;;;9.43;3.83;;;;;;;21.33;71.70;101350.66;4956831;28;20054;-83
2023/09/06 05:49:01;;;;;;;11.00;4.03;;;;;;;21.29;71.50;101360.00;4956311;28;20070;-83
2023/09/06 05:51:33;;;;;;;6.78;3.90;;;;;;;21.44;71.39;101369.75;4956607;28;20043;-83
2023/09/06 05:54:03;;;;;;;9.43;3.95;;;;;;;21.51;70.60;101366.44;4972798;28;20042;-83
2023/09/06 05:56:33;;;;;;;5.40;3.33;;;;;;;21.54;70.45;101352.66;4956671;28;20085;-83
2023/09/06 05:59:01;;;;;;;5.57;3.35;;;;;;;21.61;70.39;101361.28;4956683;28;20058;-83
2023/09/06 06:01:30;;;;;;;6.03;3.60;;;;;;;21.81;69.84;101372.84;4957862;28;20047;-83
2023/09/06 06:03:59;;;;;;;9.35;4.00;;;;;;;21.68;69.92;101366.34;4952739;28;20039;-83
2023/09/06 06:06:28;;;;;;;4.57;3.25;;;;;;;21.83;69.96;101369.72;4957983;28;20087;-83
2023/09/06 06:08:57;;;;;;;7.43;3.80;;;;;;;22.02;69.18;101367.28;4955872;28;20043;-83
2023/09/06 06:11:26;;;;;;;6.70;3.97;;;;;;;22.10;68.77;101367.56;4961796;28;20051;-83
2023/09/06 06:13:57;;;;;;;4.90;3.85;;;;;;;22.13;68.89;101376.06;4956528;28;20055;-83
2023/09/06 06:16:37;;;;;;;8.75;3.65;;;;;;;22.29;68.98;101372.66;4950293;29;20039;-82
2023/09/06 06:19:06;;;;;;;9.50;3.25;;;;;;;22.37;68.40;101391.28;4963164;28;20050;-83
2023/09/06 06:21:34;;;;;;;7.22;3.95;;;;;;;22.38;68.16;101395.69;4958440;28;20059;-82
2023/09/06 06:24:03;;;;;;;8.18;4.20;;;;;;;22.58;68.14;101396.03;4952463;28;20062;-82
2023/09/06 06:26:35;;;;;;;8.48;4.47;;;;;;;22.49;67.45;101400.84;4959952;28;20074;-83
2023/09/06 06:29:04;;;;;;;5.88;4.50;;;;;;;22.48;67.34;101383.28;4970688;28;20038;-82
2023/09/06 06:31:33;;;;;;;8.77;4.30;;;;;;;22.72;67.38;101409.69;4965710;28;20039;-83
2023/09/06 06:34:04;;;;;;;9.48;4.70;;;;;;;22.76;66.73;101398.63;4953766;28;20046;-83
2023/09/06 06:36:32;;;;;;;6.22;4.95;;;;;;;22.76;67.21;101399.47;4960314;28;20074;-83
2023/09/06 06:39:01;;;;;;;9.63;5.25;;;;;;;22.76;67.30;101393.88;4964012;28;20039;-83
2023/09/06 06:41:29;;;;;;;6.20;4.55;;;;;;;22.92;66.76;101390.44;4973237;28;20054;-83
2023/09/06 06:43:58;;;;;;;7.35;4.80;;;;;;;23.06;65.94;101402.09;4962925;28;20042;-83
2023/09/06 06:46:28;;;;;;;7.45;4.28;;;;;;;23.16;64.90;101408.41;4967216;28;20047;-83
2023/09/06 06:48:57;;;;;;;7.20;3.70;;;;;;;23.35;63.72;101408.69;4974885;28;20086;-83
2023/09/06 06:51:31;;;;;;;6.68;4.05;;;;;;;23.37;63.50;101399.97;4963392;28;20070;-83
2023/09/06 06:53:59;;;;;;;5.40;4.20;;;;;;;23.51;63.22;101402.38;4969244;28;20062;-83
2023/09/06 06:56:28;;;;;;;9.60;3.80;;;;;;;23.47;63.22;101388.31;4970263;28;20394;-84
2023/09/06 06:58:56;;;;;;;8.07;3.42;;;;;;;23.53;62.08;101408.47;4970672;28;20062;-84
2023/09/06 07:01:27;;;;;;;9.98;3.75;;;;;;;23.76;61.92;101410.78;4952375;28;20050;-87
2023/09/06 07:03:55;;;;;;;7.82;3.70;;;;;;;23.76;61.08;101408.78;4968986;28;20051;-87
2023/09/06 07:06:24;;;;;;;5.85;3.40;;;;;;;23.89;61.29;101409.59;4968335;28;20426;-84
2023/09/06 07:08:55;;;;;;;4.55;3.72;;;;;;;24.01;61.00;101408.75;4969205;28;20058;-88
2023/09/06 07:11:24;;;;;;;4.55;3.10;;;;;;;23.92;60.03;101415.63;4969897;28;20488;-88
2023/09/06 07:13:53;;;;;;;3.55;2.92;;;;;;;24.24;59.70;101418.66;4943484;28;20047;-88
2023/09/06 07:16:22;;;;;;;5.63;3.20;;;;;;;24.23;59.89;101414.19;4970385;28;20047;-82
2023/09/06 07:18:51;;;;;;;3.58;3.20;;;;;;;24.26;59.95;101413.50;4968357;28;20046;-82
2023/09/06 07:21:20;;;;;;;4.28;3.08;;;;;;;24.45;59.20;101418.44;4968226;28;20054;-82
2023/09/06 07:23:51;;;;;;;5.22;3.13;;;;;;;24.59;58.65;101423.66;4968181;28;20058;-82
2023/09/06 07:26:19;;;;;;;5.75;3.65;;;;;;;24.40;58.36;101415.91;4968064;28;20050;-83
2023/09/06 07:28:48;;;;;;;4.13;3.38;;;;;;;24.50;58.71;101414.59;4967863;28;20043;-82
2023/09/06 07:31:17;;;;;;;5.13;3.20;;;;;;;24.51;58.52;101416.19;4952675;28;20055;-82
2023/09/06 07:33:50;;;;;;;6.00;3.30;;;;;;;24.64;56.83;101420.56;4971449;28;20058;-89
2023/09/06 07:36:19;;;;;;;4.93;3.50;;;;;;;24.81;57.19;101425.09;4952173;28;20055;-85
2023/09/06 07:38:54;;;;;;;6.78;3.20;;;;;;;24.92;56.35;101419.75;4969945;28;20046;-84
2023/09/06 07:41:25;;;;;;;4.43;3.45;;;;;;;24.86;56.51;101415.59;4978340;28;20066;-83
2023/09/06 07:43:54;;;;;;;6.35;4.07;;;;;;;24.86;57.04;101421.19;4977298;28;20046;-84
2023/09/06 07:46:25;;;;;;;6.88;3.78;;;;;;;24.91;56.57;101429.34;4975460;28;20047;-84
2023/09/06 07:48:54;;;;;;;8.77;3.90;;;;;;;24.96;56.94;101431.88;4974634;28;20051;-83
2023/09/06 07:51:26;;;;;;;7.35;3.65;;;;;;;25.13;56.35;101423.50;4975991;28;20059;-83
2023/09/06 07:53:55;;;;;;;5.07;3.25;;;;;;;25.13;55.81;101424.31;4956854;28;20055;-88
2023/09/06 07:56:23;;;;;;;7.20;3.90;;;;;;;25.16;55.70;101425.59;4975795;28;20043;-86
2023/09/06 07:58:52;;;;;;;5.72;3.22;;;;;;;25.13;54.84;101418.72;4975585;28;20039;-85
2023/09/06 08:01:20;;;;;;;7.03;3.63;;;;;;;25.32;54.98;101422.78;4975001;28;20066;-86
2023/09/06 08:03:49;;;;;;;8.70;3.13;;;;;;;25.38;55.20;101417.72;4973863;28;20051;-83
2023/09/06 08:06:17;;;;;;;7.15;3.70;;;;;;;25.49;53.68;101425.22;4976819;28;20429;-81
2023/09/06 08:08:46;;;;;;;4.22;3.63;;;;;;;25.52;51.91;101425.66;4977171;28;20111;-80
2023/09/06 08:11:18;;;;;;;4.93;3.33;;;;;;;25.38;52.01;101424.13;4974188;28;20066;-80
2023/09/06 08:13:47;;;;;;;5.15;3.28;;;;;;;25.50;52.31;101418.44;4970542;28;20062;-81
2023/09/06 08:16:16;;;;;;;5.70;3.38;;;;;;;25.49;52.47;101421.59;4971244;28;20610;-81
2023/09/06 08:18:46;;;;;;;7.15;3.85;;;;;;;25.52;52.07;101428.47;4962856;28;20405;-81
2023/09/06 08:21:19;;;;;;;5.45;3.50;;;;;;;25.50;51.06;101426.00;4967146;28;20050;-80
2023/09/06 08:23:47;;;;;;;4.88;3.28;;;;;;;25.64;52.04;101419.97;4970190;28;20406;-81
2023/09/06 08:26:16;;;;;;;4.75;3.60;;;;;;;25.62;51.80;101430.75;4969533;28;20047;-80
2023/09/06 08:28:46;;;;;;;5.50;3.80;;;;;;;25.72;51.29;101418.97;4965521;28;20490;-81
2023/09/06 08:31:14;;;;;;;5.13;3.40;;;;;;;25.83;50.04;101424.84;4948720;28;20047;-81
2023/09/06 08:33:44;;;;;;;7.50;3.35;;;;;;;26.03;49.47;101431.31;4971296;28;20054;-80
2023/09/06 08:36:12;;;;;;;6.03;3.42;;;;;;;26.01;48.92;101430.84;4967801;28;20047;-82
2023/09/06 08:38:42;;;;;;;9.02;3.33;;;;;;;25.99;49.17;101436.00;4971812;28;20390;-81
2023/09/06 08:41:10;;;;;;;4.50;3.30;;;;;;;26.07;49.18;101427.75;4951926;28;20050;-81
2023/09/06 08:43:43;;;;;;;5.80;3.35;;;;;;;26.10;48.01;101430.63;4972479;28;20073;-82
2023/09/06 08:46:21;;;;;;;5.65;3.22;;;;;;;26.16;49.73;101422.75;4961678;28;20038;-80
2023/09/06 08:48:52;;;;;;;2.88;2.53;;;;;;;26.32;48.78;101428.31;4970319;28;20042;-79
2023/09/06 08:51:22;;;;;;;4.40;3.08;;;;;;;26.48;47.37;101428.25;4954640;28;20050;-79
2023/09/06 08:53:52;;;;;;;5.68;3.25;;;;;;;26.56;47.77;101430.03;4963246;28;20070;-80
2023/09/06 08:56:20;;;;;;;4.35;3.30;;;;;;;26.54;47.65;101415.53;4973613;28;20044;-82
2023/09/06 08:58:49;;;;;;;4.68;3.33;;;;;;;26.53;47.30;101424.31;4968252;28;20054;-82
2023/09/06 09:01:17;;;;;;;4.45;2.92;;;;;;;26.58;47.14;101426.84;4966589;28;20451;-83
2023/09/06 09:03:46;;;;;;;11.10;2.92;;;;;;;26.54;45.96;101411.94;4976105;28;20065;-81
2023/09/06 09:06:14;;;;;;;4.40;3.08;;;;;;;26.49;46.08;101424.25;4946070;28;20043;-81
2023/09/06 09:08:43;;;;;;;5.75;3.35;;;;;;;26.67;46.03;101419.00;4977350;28;20046;-82
2023/09/06 09:11:13;;;;;;;4.60;3.47;;;;;;;26.80;46.63;101425.28;4978007;28;20055;-82
2023/09/06 09:13:43;;;;;;;3.83;2.78;;;;;;;26.84;46.21;101423.31;4977709;28;20050;-84
2023/09/06 09:16:13;;;;;;;4.78;3.13;;;;;;;27.00;45.93;101432.84;4979415;28;20111;-83
2023/09/06 09:18:43;;;;;;;3.72;2.65;;;;;;;26.90;46.46;101423.84;4961331;28;20046;-84
2023/09/06 09:21:13;;;;;;;5.65;3.28;;;;;;;26.82;45.79;101424.88;4974617;28;20054;-82
2023/09/06 09:23:47;;;;;;;4.15;3.28;;;;;;;26.76;45.56;101427.19;4944454;29;20788;-83
2023/09/06 09:26:20;;;;;;;6.85;2.75;;;;;;;26.89;45.86;101427.03;4943824;29;20059;-81
2023/09/06 09:28:49;;;;;;;10.57;2.75;;;;;;;26.78;46.84;101424.81;4933981;29;20683;-82
2023/09/06 09:31:18;;;;;;;19.67;3.55;;;;;;;26.86;45.95;101408.09;4934686;29;20442;-81
2023/09/06 09:33:50;;;;;;;9.02;2.67;;;;;;;26.94;46.36;101407.09;4935590;29;20534;-82
2023/09/06 09:36:19;;;;;;;8.35;2.97;;;;;;;27.17;45.26;101423.16;4932261;29;20380;-83
2023/09/06 09:38:51;;;;;;;3.10;2.40;;;;;;;27.22;44.20;101415.19;4908364;29;20036;-83
2023/09/06 09:41:22;;;;;;;4.03;2.58;;;;;;;27.33;44.29;101409.75;4926992;29;20052;-85
2023/09/06 09:44:19;;;;;;;3.70;1.90;;;;;;;27.32;44.98;101407.34;4931125;29;20067;-83
2023/09/06 09:46:54;;;;;;;6.85;2.53;;;;;;;27.31;44.27;101411.31;4933982;29;20040;-84
2023/09/06 09:49:24;;;;;;;3.15;2.60;;;;;;;27.54;43.83;101414.09;4927147;29;20074;-83
2023/09/06 09:51:53;;;;;;;2.78;2.45;;;;;;;27.61;42.63;101419.88;4933059;29;20048;-83
2023/09/06 09:54:24;;;;;;;3.13;2.45;;;;;;;27.58;43.69;101403.78;4933449;29;20051;-83
2023/09/06 09:57:03;;;;;;;2.97;2.70;;;;;;;27.66;43.46;101420.75;4935624;29;20047;-82
2023/09/06 09:59:35;;;;;;;4.55;2.42;;;;;;;27.75;42.80;101413.66;4953037;29;20059;-82
2023/09/06 10:02:05;;;;;;;4.30;2.60;;;;;;;27.93;42.00;101401.03;4937141;29;20047;-82
2023/09/06 10:04:37;;;;;;;2.70;2.22;;;;;;;28.12;40.66;101400.91;4930417;29;20070;-81
2023/09/06 10:07:08;;;;;;;2.42;2.20;;;;;;;28.04;41.87;101385.13;4931179;29;20060;-82
2023/09/06 10:09:42;;;;;;;4.13;2.10;;;;;;;28.21;42.51;101399.78;4925244;29;20048;-82
2023/09/06 10:12:12;;;;;;;2.88;2.38;;;;;;;28.33;42.33;101399.56;4936487;29;20063;-82
2023/09/06 10:14:41;;;;;;;6.75;2.58;;;;;;;28.46;42.16;101404.94;4927342;29;20066;-82
2023/09/06 10:17:11;;;;;;;2.30;2.10;;;;;;;28.23;41.08;101389.00;4928860;29;20044;-82
2023/09/06 10:19:41;;;;;;;2.67;2.03;;;;;;;28.11;40.17;101390.03;4939721;29;20043;-82
2023/09/06 10:22:21;;;;;;;3.20;2.50;;;;;;;28.38;40.61;101382.34;4941128;28;20054;-82
2023/09/06 10:24:53;;;;;;;4.38;2.60;;;;;;;28.56;41.03;101384.56;4940324;29;20055;-82
2023/09/06 10:27:31;;;;;;;2.75;2.55;;;;;;;28.50;41.32;101383.28;4935551;29;20047;-82
2023/09/06 10:30:06;;;;;;;5.05;2.67;;;;;;;28.53;41.27;101396.56;4940204;29;20062;-83
2023/09/06 10:32:43;;;;;;;2.63;2.42;;;;;;;28.66;41.39;101385.88;4935534;29;20506;-82
2023/09/06 10:35:29;;;;;;;4.10;2.40;;;;;;;28.80;40.51;101385.19;4933784;29;20399;-82
2023/09/06 10:38:18;;;;;;;3.38;2.30;;;;;;;28.86;39.72;101383.69;4916813;29;20055;-82
2023/09/06 10:40:49;;;;;;;4.97;1.92;;;;;;;28.83;39.40;101376.78;4929540;29;20391;-82
2023/09/06 10:43:55;;;;;;;2.08;1.73;;;;;;;28.71;39.89;101379.88;4933501;29;20051;-82
2023/09/06 10:46:31;;;;;;;2.65;1.95;;;;;;;28.92;39.59;101373.69;4924203;29;20048;-82
2023/09/06 10:49:19;;;;;;;3.28;2.35;;;;;;;29.06;40.27;101375.81;4930579;29;20062;-82
2023/09/06 10:52:03;;;;;;;4.15;2.10;;;;;;;29.30;39.28;101376.41;4926434;29;20048;-81
2023/09/06 10:54:40;;;;;;;4.22;2.20;;;;;;;29.33;39.41;101372.00;4921660;29;20048;-82
2023/09/06 10:57:14;;;;;;;3.67;2.08;;;;;;;29.21;37.92;101368.28;4947157;29;20056;-82
2023/09/06 10:59:44;;;;;;;1.88;1.77;;;;;;;29.30;38.88;101364.31;4931789;29;20043;-82
2023/09/06 11:02:19;;;;;;;4.38;2.20;;;;;;;29.35;39.33;101363.94;4921266;29;20458;-82
2023/09/06 11:05:05;;;;;;;3.22;2.30;;;;;;;29.54;38.06;101368.53;4928843;29;20056;-81
2023/09/06 11:07:46;;;;;;;2.80;2.00;;;;;;;29.24;37.79;101353.41;4932071;29;20052;-81
2023/09/06 11:10:26;;;;;;;2.97;2.00;;;;;;;29.22;38.47;101358.63;4932667;29;20048;-82
2023/09/06 11:13:12;;;;;;;1.90;1.73;;;;;;;29.34;37.54;101365.97;4945407;29;20055;-77
2023/09/06 11:15:41;;;;;;;2.38;1.90;;;;;;;29.61;37.05;101360.13;4933565;29;20059;-76
2023/09/06 11:18:10;;;;;;;5.00;2.05;;;;;;;29.95;37.11;101347.81;4929255;29;20082;-77
2023/09/06 11:20:41;;;;;;;3.10;2.33;;;;;;;30.03;37.13;101351.47;4930343;29;20051;-77
2023/09/06 11:23:11;;;;;;;2.03;1.75;;;;;;;29.81;35.58;101356.22;4955028;28;20051;-78
2023/09/06 11:25:39;;;;;;;1.98;1.83;;;;;;;29.74;34.94;101351.31;4967713;28;20062;-78
2023/09/06 11:28:19;;;;;;;1.80;1.70;;;;;;;29.73;33.24;101350.53;4964374;28;20046;-77
2023/09/06 11:30:49;;;;;;;2.47;2.03;;;;;;;30.03;35.49;101340.19;4964370;28;20087;-77
2023/09/06 11:33:18;;;;;;;4.85;1.98;;;;;;;30.09;34.76;101351.91;4962493;28;20054;-78
2023/09/06 11:35:56;;;;;;;2.63;1.52;;;;;;;29.83;34.33;101342.50;4974118;28;20058;-77
2023/09/06 11:38:33;;;;;;;2.17;1.70;;;;;;;29.84;35.13;101344.94;4956685;29;20074;-78
2023/09/06 11:41:08;;;;;;;2.90;2.15;;;;;;;30.06;35.40;101332.94;4965533;28;20055;-77